createdAt,value
2022-09-10T00:01:41.893Z,13.95
2022-09-10T00:04:14.780Z,15.82
2022-09-10T00:06:45.360Z,14.60
2022-09-10T00:09:14.967Z,12.57
2022-09-10T00:11:45.844Z,18.48
2022-09-10T00:14:19.405Z,14.70
2022-09-10T00:16:48.478Z,15.27
2022-09-10T00:19:17.998Z,13.73
2022-09-10T00:21:46.859Z,14.82
2022-09-10T00:24:15.734Z,12.98
2022-09-10T00:26:44.668Z,15.40
2022-09-10T00:29:17.038Z,14.43
2022-09-10T00:31:46.819Z,12.43
2022-09-10T00:34:16.574Z,13.73
2022-09-10T00:36:46.448Z,14.02
2022-09-10T00:39:18.400Z,13.25
2022-09-10T00:41:49.993Z,13.48
2022-09-10T00:45:03.426Z,12.55
2022-09-10T00:47:38.982Z,13.90
2022-09-10T00:50:19.290Z,13.15
2022-09-10T00:52:48.484Z,12.82
2022-09-10T00:55:18.528Z,12.80
2022-09-10T00:57:51.805Z,13.68
2022-09-10T01:00:23.116Z,12.07
2022-09-10T01:02:52.126Z,12.07
2022-09-10T01:05:21.969Z,11.52
2022-09-10T01:07:53.086Z,10.38
2022-09-10T01:10:28.527Z,12.07
2022-09-10T01:13:28.638Z,10.27
2022-09-10T01:16:11.791Z,11.77
2022-09-10T01:18:55.612Z,10.77
2022-09-10T01:21:31.653Z,10.15
2022-09-10T01:24:48.125Z,10.95
2022-09-10T01:27:38.679Z,9.88
2022-09-10T01:30:15.755Z,8.75
2022-09-10T01:33:03.489Z,9.73
2022-09-10T01:35:43.789Z,8.85
2022-09-10T01:38:20.961Z,10.07
2022-09-10T01:40:50.435Z,9.05
2022-09-10T01:43:23.670Z,9.88
2022-09-10T01:46:20.786Z,9.20
2022-09-10T01:49:16.250Z,9.95
2022-09-10T01:52:08.776Z,12.05
2022-09-10T01:54:56.442Z,11.10
2022-09-10T01:57:41.736Z,11.63
2022-09-10T02:00:16.150Z,9.50
2022-09-10T02:02:53.330Z,12.27
2022-09-10T02:05:24.669Z,13.05
2022-09-10T02:08:04.016Z,11.38
2022-09-10T02:10:33.085Z,11.82
2022-09-10T02:13:02.647Z,11.75
2022-09-10T02:15:54.192Z,13.88
2022-09-10T02:18:27.601Z,13.07
2022-09-10T02:21:00.304Z,12.07
2022-09-10T02:23:37.313Z,12.57
2022-09-10T02:26:06.417Z,13.35
2022-09-10T02:28:35.857Z,14.52
2022-09-10T02:31:05.995Z,14.35
2022-09-10T02:33:35.244Z,14.73
2022-09-10T02:36:05.261Z,15.25
2022-09-10T02:38:35.269Z,13.35
2022-09-10T02:41:04.137Z,14.90
2022-09-10T02:43:38.272Z,12.55
2022-09-10T02:46:09.401Z,15.43
2022-09-10T02:48:40.074Z,16.52
2022-09-10T02:51:10.895Z,13.90
2022-09-10T02:53:40.324Z,12.80
2022-09-10T02:56:13.738Z,13.90
2022-09-10T02:58:45.339Z,12.75
2022-09-10T03:01:19.281Z,12.85
2022-09-10T03:03:58.243Z,13.23
2022-09-10T03:06:28.731Z,11.07
2022-09-10T03:08:57.712Z,12.95
2022-09-10T03:11:28.449Z,12.70
2022-09-10T03:14:00.250Z,13.07
2022-09-10T03:16:32.930Z,16.20
2022-09-10T03:19:03.187Z,15.43
2022-09-10T03:21:34.145Z,13.43
2022-09-10T03:24:05.239Z,13.63
2022-09-10T03:26:34.882Z,14.20
2022-09-10T03:29:04.945Z,14.50
2022-09-10T03:31:39.977Z,15.05
2022-09-10T03:34:09.135Z,14.27
2022-09-10T03:36:37.905Z,16.23
2022-09-10T03:39:08.888Z,16.77
2022-09-10T03:41:37.512Z,13.80
2022-09-10T03:44:06.673Z,16.33
2022-09-10T03:46:35.589Z,14.95
2022-09-10T03:49:08.489Z,12.10
2022-09-10T03:51:37.543Z,12.90
2022-09-10T03:54:06.989Z,13.00
2022-09-10T03:56:36.507Z,13.50
2022-09-10T03:59:05.280Z,14.65
2022-09-10T04:01:33.913Z,14.50
2022-09-10T04:04:04.133Z,15.05
2022-09-10T04:06:34.761Z,15.15
2022-09-10T04:09:03.605Z,16.25
2022-09-10T04:11:32.355Z,13.80
2022-09-10T04:14:01.551Z,14.73
2022-09-10T04:16:32.536Z,12.75
2022-09-10T04:19:01.793Z,14.02
2022-09-10T04:21:32.061Z,12.65
2022-09-10T04:24:03.132Z,10.88
2022-09-10T04:26:32.377Z,11.38
2022-09-10T04:29:01.151Z,11.05
2022-09-10T04:31:29.821Z,11.93
2022-09-10T04:34:02.986Z,12.20
2022-09-10T04:36:35.165Z,14.18
2022-09-10T04:39:06.013Z,12.07
2022-09-10T04:41:34.835Z,13.20
2022-09-10T04:44:03.816Z,13.45
2022-09-10T04:46:32.808Z,11.15
2022-09-10T04:49:03.479Z,13.07
2022-09-10T04:51:33.508Z,13.13
2022-09-10T04:54:02.923Z,13.23
2022-09-10T04:56:37.417Z,13.55
2022-09-10T04:59:06.867Z,13.57
2022-09-10T05:01:38.850Z,12.23
2022-09-10T05:04:07.838Z,12.70
2022-09-10T05:06:38.979Z,13.98
2022-09-10T05:09:12.495Z,14.00
2022-09-10T05:11:43.852Z,13.77
2022-09-10T05:14:13.510Z,13.88
2022-09-10T05:16:43.378Z,14.32
2022-09-10T05:19:17.777Z,13.45
2022-09-10T05:21:58.775Z,12.40
2022-09-10T05:24:28.096Z,13.00
2022-09-10T05:26:59.608Z,14.77
2022-09-10T05:29:28.499Z,12.18
2022-09-10T05:31:57.208Z,12.30
2022-09-10T05:34:27.054Z,12.50
2022-09-10T05:36:56.440Z,12.23
2022-09-10T05:39:25.324Z,11.40
2022-09-10T05:41:55.513Z,10.70
2022-09-10T05:44:26.852Z,12.10
2022-09-10T05:46:55.536Z,11.10
2022-09-10T05:49:24.169Z,11.23
2022-09-10T05:51:53.079Z,11.35
2022-09-10T05:54:22.215Z,13.07
2022-09-10T05:56:51.236Z,12.85
2022-09-10T05:59:20.490Z,11.23
2022-09-10T06:01:54.132Z,10.95
2022-09-10T06:04:24.343Z,12.85
2022-09-10T06:06:53.304Z,11.93
2022-09-10T06:09:22.316Z,12.25
2022-09-10T06:12:17.372Z,12.65
2022-09-10T06:14:46.214Z,9.77
2022-09-10T06:17:17.608Z,13.00
2022-09-10T06:19:46.997Z,13.40
2022-09-10T06:22:18.689Z,13.25
2022-09-10T06:24:53.844Z,11.75
2022-09-10T06:27:24.190Z,17.05
2022-09-10T06:29:53.678Z,12.80
2022-09-10T06:32:23.786Z,12.45
2022-09-10T06:34:52.443Z,11.70
2022-09-10T06:37:23.734Z,12.32
2022-09-10T06:39:52.901Z,10.18
2022-09-10T06:42:23.275Z,10.30
2022-09-10T06:45:30.194Z,12.27
2022-09-10T06:48:38.280Z,11.35
2022-09-10T06:51:13.595Z,11.63
2022-09-10T06:53:46.104Z,12.95
2022-09-10T06:56:19.731Z,12.52
2022-09-10T06:58:48.461Z,11.18
2022-09-10T07:01:20.666Z,11.75
2022-09-10T07:03:58.488Z,11.80
2022-09-10T07:06:35.227Z,10.10
2022-09-10T07:09:11.284Z,11.18
2022-09-10T07:11:52.987Z,12.05
2022-09-10T07:14:21.579Z,9.43
2022-09-10T07:16:51.526Z,10.32
2022-09-10T07:19:23.834Z,11.57
2022-09-10T07:21:52.827Z,9.57
2022-09-10T07:24:21.533Z,12.57
2022-09-10T07:27:11.049Z,11.45
2022-09-10T07:29:42.734Z,11.90
2022-09-10T07:32:16.262Z,11.68
2022-09-10T07:34:47.314Z,12.13
2022-09-10T07:37:17.330Z,12.30
2022-09-10T07:39:47.647Z,12.20
2022-09-10T07:42:18.034Z,11.43
2022-09-10T07:44:48.517Z,12.13
2022-09-10T07:47:17.580Z,11.05
2022-09-10T07:49:48.070Z,12.52
2022-09-10T07:52:17.535Z,13.30
2022-09-10T07:54:56.189Z,12.88
2022-09-10T07:57:25.008Z,12.35
2022-09-10T07:59:54.975Z,11.93
2022-09-10T08:02:26.344Z,11.50
2022-09-10T08:05:04.594Z,11.48
2022-09-10T08:07:35.762Z,10.77
2022-09-10T08:10:07.654Z,11.68
2022-09-10T08:12:37.600Z,10.40
2022-09-10T08:15:08.680Z,11.15
2022-09-10T08:17:38.547Z,10.90
2022-09-10T08:20:11.168Z,10.90
2022-09-10T08:22:45.074Z,10.63
2022-09-10T08:25:13.865Z,10.23
2022-09-10T08:27:43.965Z,12.00
2022-09-10T08:30:15.111Z,10.02
2022-09-10T08:32:44.319Z,10.05
2022-09-10T08:35:16.517Z,11.52
2022-09-10T08:37:46.476Z,12.82
2022-09-10T08:40:18.225Z,9.93
2022-09-10T08:42:51.156Z,10.80
2022-09-10T08:45:28.521Z,10.80
2022-09-10T08:48:05.944Z,9.20
2022-09-10T08:50:46.741Z,10.07
2022-09-10T08:53:28.630Z,8.82
2022-09-10T08:56:06.429Z,10.50
2022-09-10T08:58:44.605Z,10.98
2022-09-10T09:01:30.496Z,10.60
2022-09-10T09:04:06.410Z,9.68
2022-09-10T09:06:45.415Z,10.82
2022-09-10T09:09:15.926Z,10.65
2022-09-10T09:12:00.902Z,11.90
2022-09-10T09:14:51.188Z,11.77
2022-09-10T09:17:42.715Z,12.60
2022-09-10T09:20:19.160Z,11.77
2022-09-10T09:22:56.585Z,14.65
2022-09-10T09:25:39.314Z,11.95
2022-09-10T09:28:19.296Z,12.82
2022-09-10T09:30:51.274Z,13.23
2022-09-10T09:33:25.179Z,12.27
2022-09-10T09:36:01.433Z,12.48
2022-09-10T09:38:38.705Z,12.77
2022-09-10T09:41:19.793Z,14.80
2022-09-10T09:43:57.429Z,14.38
2022-09-10T09:46:27.353Z,15.93
2022-09-10T09:49:03.215Z,12.65
2022-09-10T09:51:36.669Z,12.20
2022-09-10T09:54:46.437Z,14.10
2022-09-10T09:57:03.006Z,12.65
2022-09-10T09:59:34.828Z,15.45
2022-09-10T10:02:12.968Z,12.35
2022-09-10T10:04:55.375Z,13.48
2022-09-10T10:07:31.521Z,12.32
2022-09-10T10:10:04.108Z,12.80
2022-09-10T10:12:34.490Z,11.90
2022-09-10T10:15:03.753Z,12.88
2022-09-10T10:17:38.970Z,13.52
2022-09-10T10:20:12.815Z,13.07
2022-09-10T10:22:43.225Z,11.55
2022-09-10T10:25:41.299Z,13.05
2022-09-10T10:28:24.481Z,12.13
2022-09-10T10:30:55.560Z,11.38
2022-09-10T10:33:29.729Z,11.07
2022-09-10T10:36:15.336Z,10.32
2022-09-10T10:38:57.745Z,11.80
2022-09-10T10:42:06.906Z,12.65
2022-09-10T10:44:59.705Z,11.10
2022-09-10T10:47:45.231Z,10.18
2022-09-10T10:50:31.863Z,11.20
2022-09-10T10:53:43.289Z,10.82
2022-09-10T10:56:21.833Z,13.52
2022-09-10T10:59:34.351Z,14.13
2022-09-10T11:02:16.214Z,12.27
2022-09-10T11:04:50.429Z,12.63
2022-09-10T11:07:30.586Z,13.98
2022-09-10T11:10:11.742Z,12.20
2022-09-10T11:12:50.526Z,12.82
2022-09-10T11:15:31.512Z,12.27
2022-09-10T11:18:13.949Z,11.57
2022-09-10T11:20:53.358Z,12.10
2022-09-10T11:23:33.591Z,12.73
2022-09-10T11:26:08.709Z,11.25
2022-09-10T11:28:43.641Z,13.52
2022-09-10T11:31:21.954Z,14.00
2022-09-10T11:34:00.552Z,15.05
2022-09-10T11:36:39.086Z,15.00
2022-09-10T11:39:20.003Z,15.32
2022-09-10T11:41:54.818Z,15.35
2022-09-10T11:44:46.006Z,16.35
2022-09-10T11:47:22.995Z,16.02
2022-09-10T11:49:58.415Z,13.88
2022-09-10T11:52:31.010Z,14.50
2022-09-10T11:55:00.322Z,14.30
2022-09-10T11:57:41.333Z,14.73
2022-09-10T12:00:18.047Z,14.82
2022-09-10T12:03:31.611Z,15.10
2022-09-10T12:06:10.404Z,19.23
2022-09-10T12:09:01.933Z,18.00
2022-09-10T12:11:42.383Z,18.52
2022-09-10T12:14:18.614Z,15.15
2022-09-10T12:16:53.397Z,20.38
2022-09-10T12:19:30.356Z,21.75
2022-09-10T12:22:05.091Z,19.55
2022-09-10T12:24:37.894Z,21.23
2022-09-10T12:27:10.176Z,20.98
2022-09-10T12:29:41.567Z,19.48
2022-09-10T12:32:30.910Z,15.63
2022-09-10T12:35:48.615Z,16.55
2022-09-10T12:38:51.527Z,15.27
2022-09-10T12:42:00.137Z,14.18
2022-09-10T12:44:48.168Z,14.57
2022-09-10T12:47:53.853Z,12.63
2022-09-10T12:50:46.333Z,12.38
2022-09-10T12:54:06.425Z,14.63
2022-09-10T12:57:08.250Z,11.70
2022-09-10T13:00:13.431Z,10.75
2022-09-10T13:02:58.353Z,12.52
2022-09-10T13:05:33.224Z,11.30
2022-09-10T13:08:18.757Z,11.27
2022-09-10T13:11:13.463Z,10.13
2022-09-10T13:13:51.758Z,9.98
2022-09-10T13:16:38.280Z,12.77
2022-09-10T13:19:51.107Z,10.00
2022-09-10T13:23:04.184Z,10.43
2022-09-10T13:25:42.831Z,8.85
2022-09-10T13:29:05.796Z,9.70
2022-09-10T13:31:39.760Z,9.18
2022-09-10T13:35:17.391Z,8.93
2022-09-10T13:38:30.403Z,9.23
2022-09-10T13:41:37.003Z,9.40
2022-09-10T13:44:41.155Z,9.38
2022-09-10T13:47:17.926Z,8.65
2022-09-10T13:49:56.651Z,9.85
2022-09-10T13:52:30.534Z,9.93
2022-09-10T13:55:01.677Z,9.88
2022-09-10T13:57:36.556Z,9.48
2022-09-10T14:00:20.624Z,9.40
2022-09-10T14:02:53.931Z,8.80
2022-09-10T14:05:36.620Z,9.80
2022-09-10T14:08:12.994Z,9.15
2022-09-10T14:10:58.136Z,8.48
2022-09-10T14:13:34.648Z,9.10
2022-09-10T14:16:10.879Z,8.80
2022-09-10T14:18:48.508Z,8.75
2022-09-10T14:21:19.681Z,8.82
2022-09-10T14:23:50.665Z,8.30
2022-09-10T14:26:24.794Z,8.93
2022-09-10T14:28:58.851Z,9.48
2022-09-10T14:31:37.531Z,8.93
2022-09-10T14:34:32.250Z,9.73
2022-09-10T14:37:02.407Z,9.43
2022-09-10T14:39:31.388Z,8.82
2022-09-10T14:42:12.456Z,10.60
2022-09-10T14:44:43.148Z,8.65
2022-09-10T14:47:35.863Z,8.70
2022-09-10T14:50:31.160Z,10.02
2022-09-10T14:53:00.235Z,8.73
2022-09-10T14:55:34.025Z,8.55
2022-09-10T14:58:02.585Z,8.00
2022-09-10T15:00:31.653Z,8.55
2022-09-10T15:03:01.544Z,8.50
2022-09-10T15:05:30.747Z,8.90
2022-09-10T15:07:59.723Z,8.40
2022-09-10T15:10:28.348Z,9.63
2022-09-10T15:12:57.089Z,9.50
2022-09-10T15:15:26.961Z,9.93
2022-09-10T15:17:56.683Z,9.23
2022-09-10T15:20:28.079Z,9.45
2022-09-10T15:22:57.025Z,8.30
2022-09-10T15:25:38.567Z,9.20
2022-09-10T15:28:08.027Z,9.15
2022-09-10T15:30:36.994Z,10.30
2022-09-10T15:33:06.351Z,11.27
2022-09-10T15:35:36.686Z,10.80
2022-09-10T15:38:05.399Z,8.85
2022-09-10T15:40:33.969Z,10.75
2022-09-10T15:43:02.744Z,11.20
2022-09-10T15:45:34.786Z,10.77
2022-09-10T15:48:05.212Z,11.50
2022-09-10T15:50:34.747Z,11.80
2022-09-10T15:53:11.776Z,9.57
2022-09-10T15:55:40.895Z,11.10
2022-09-10T15:58:09.469Z,11.05
2022-09-10T16:00:38.220Z,11.55
2022-09-10T16:03:07.115Z,12.05
2022-09-10T16:05:35.897Z,15.07
2022-09-10T16:08:06.011Z,13.32
2022-09-10T16:10:34.859Z,12.43
2022-09-10T16:13:03.612Z,11.63
2022-09-10T16:15:32.171Z,11.85
2022-09-10T16:18:02.250Z,12.43
2022-09-10T16:20:30.800Z,12.23
2022-09-10T16:22:59.606Z,11.15
2022-09-10T16:25:31.128Z,12.02
2022-09-10T16:27:59.919Z,11.95
2022-09-10T16:30:29.434Z,10.90
2022-09-10T16:32:58.722Z,13.10
2022-09-10T16:35:27.461Z,9.68
2022-09-10T16:37:56.391Z,11.65
2022-09-10T16:40:25.059Z,9.98
2022-09-10T16:42:55.563Z,11.02
2022-09-10T16:45:24.562Z,11.63
2022-09-10T16:47:55.159Z,11.30
2022-09-10T16:50:26.817Z,10.60
2022-09-10T16:52:55.636Z,11.88
2022-09-10T16:55:24.198Z,12.75
2022-09-10T16:57:54.388Z,11.10
2022-09-10T17:00:23.238Z,11.35
2022-09-10T17:02:53.036Z,13.80
2022-09-10T17:05:23.471Z,12.73
2022-09-10T17:07:52.485Z,13.65
2022-09-10T17:10:21.260Z,13.25
2022-09-10T17:12:49.943Z,14.02
2022-09-10T17:15:20.035Z,12.98
2022-09-10T17:17:49.359Z,16.80
2022-09-10T17:20:19.457Z,15.15
2022-09-10T17:22:48.252Z,17.88
2022-09-10T17:25:17.020Z,14.50
2022-09-10T17:27:45.668Z,15.45
2022-09-10T17:30:14.649Z,15.40
2022-09-10T17:32:44.714Z,18.27
2022-09-10T17:35:13.498Z,15.80
2022-09-10T17:37:42.350Z,14.93
2022-09-10T17:40:12.431Z,15.13
2022-09-10T17:42:41.406Z,13.05
2022-09-10T17:45:11.807Z,14.43
2022-09-10T17:47:40.506Z,14.52
2022-09-10T17:50:11.351Z,12.63
2022-09-10T17:52:40.818Z,15.90
2022-09-10T17:55:09.854Z,13.15
2022-09-10T17:57:38.414Z,14.20
2022-09-10T18:00:09.345Z,13.90
2022-09-10T18:02:37.974Z,13.15
2022-09-10T18:05:07.764Z,10.48
2022-09-10T18:07:38.099Z,12.70
2022-09-10T18:10:07.748Z,14.82
2022-09-10T18:12:36.397Z,13.70
2022-09-10T18:15:06.362Z,13.30
2022-09-10T18:17:35.001Z,12.95
2022-09-10T18:20:04.028Z,13.32
2022-09-10T18:22:34.519Z,15.13
2022-09-10T18:25:04.887Z,13.77
2022-09-10T18:27:33.746Z,13.05
2022-09-10T18:30:02.377Z,13.57
2022-09-10T18:32:30.962Z,13.23
2022-09-10T18:34:59.709Z,11.85
2022-09-10T18:37:29.725Z,14.85
2022-09-10T18:39:59.288Z,13.55
2022-09-10T18:42:29.438Z,15.18
2022-09-10T18:44:58.036Z,16.05
2022-09-10T18:47:43.553Z,15.75
2022-09-10T18:50:13.839Z,15.10
2022-09-10T18:52:42.464Z,16.08
2022-09-10T18:55:12.154Z,13.77
2022-09-10T18:57:42.334Z,15.68
2022-09-10T19:00:12.974Z,14.02
2022-09-10T19:02:41.803Z,14.15
2022-09-10T19:05:11.966Z,14.13
2022-09-10T19:07:40.966Z,14.00
2022-09-10T19:10:10.335Z,13.80
2022-09-10T19:12:38.942Z,19.40
2022-09-10T19:15:10.768Z,20.05
2022-09-10T19:17:39.748Z,15.27
2022-09-10T19:20:10.067Z,14.27
2022-09-10T19:22:38.635Z,14.75
2022-09-10T19:25:09.284Z,12.93
2022-09-10T19:27:37.849Z,12.98
2022-09-10T19:30:09.652Z,13.52
2022-09-10T19:32:38.576Z,13.30
2022-09-10T19:35:07.733Z,11.88
2022-09-10T19:37:36.330Z,13.73
2022-09-10T19:40:05.956Z,12.77
2022-09-10T19:42:34.555Z,13.18
2022-09-10T19:45:05.873Z,13.77
2022-09-10T19:47:40.167Z,13.85
2022-09-10T19:50:10.349Z,11.52
2022-09-10T19:52:39.172Z,13.68
2022-09-10T19:55:08.700Z,11.88
2022-09-10T19:57:37.311Z,12.60
2022-09-10T20:00:08.428Z,12.70
2022-09-10T20:02:41.467Z,12.82
2022-09-10T20:05:10.980Z,14.00
2022-09-10T20:07:39.768Z,13.77
2022-09-10T20:10:09.485Z,11.05
2022-09-10T20:12:38.396Z,11.23
2022-09-10T20:15:09.113Z,12.23
2022-09-10T20:17:38.254Z,13.00
2022-09-10T20:20:10.705Z,13.98
2022-09-10T20:22:39.417Z,13.25
2022-09-10T20:25:08.854Z,9.77
2022-09-10T20:27:37.465Z,10.50
2022-09-10T20:30:07.736Z,10.40
2022-09-10T20:32:36.957Z,9.40
2022-09-10T20:35:06.526Z,7.28
2022-09-10T20:37:36.533Z,10.02
2022-09-10T20:40:06.093Z,7.65
2022-09-10T20:42:35.229Z,7.78
2022-09-10T20:45:03.864Z,7.80
2022-09-10T20:47:34.241Z,9.20
2022-09-10T20:50:03.097Z,9.98
2022-09-10T20:52:31.711Z,11.27
2022-09-10T20:55:03.063Z,10.23
2022-09-10T20:57:31.685Z,11.50
2022-09-10T21:00:00.320Z,10.07
2022-09-10T21:02:29.432Z,11.40
2022-09-10T21:04:58.309Z,11.93
2022-09-10T21:07:28.378Z,11.02
2022-09-10T21:09:57.487Z,9.45
2022-09-10T21:12:27.476Z,11.65
2022-09-10T21:14:56.063Z,11.23
2022-09-10T21:17:24.830Z,9.20
2022-09-10T21:19:53.775Z,11.05
2022-09-10T21:22:22.331Z,12.05
2022-09-10T21:24:51.085Z,11.50
2022-09-10T21:27:19.759Z,12.00
2022-09-10T21:29:50.374Z,11.07
2022-09-10T21:32:19.231Z,11.93
2022-09-10T21:34:48.581Z,12.43
2022-09-10T21:37:17.520Z,12.15
2022-09-10T21:39:46.618Z,14.73
2022-09-10T21:42:15.400Z,13.93
2022-09-10T21:44:44.075Z,13.18
2022-09-10T21:47:14.419Z,13.35
2022-09-10T21:49:43.002Z,10.27
2022-09-10T21:52:11.894Z,8.98
2022-09-10T21:54:40.651Z,11.32
2022-09-10T21:57:11.440Z,10.43
2022-09-10T21:59:41.634Z,12.05
2022-09-10T22:02:10.878Z,11.63
2022-09-10T22:04:40.978Z,11.70
2022-09-10T22:07:10.364Z,11.13
2022-09-10T22:09:39.135Z,12.23
2022-09-10T22:12:08.011Z,11.90
2022-09-10T22:14:36.664Z,12.70
2022-09-10T22:17:05.907Z,13.15
2022-09-10T22:19:34.722Z,13.20
2022-09-10T22:22:04.881Z,15.63
2022-09-10T22:24:33.712Z,13.13
2022-09-10T22:27:02.396Z,13.27
2022-09-10T22:29:31.103Z,11.55
2022-09-10T22:32:00.087Z,11.85
2022-09-10T22:34:28.855Z,9.32
2022-09-10T22:36:57.757Z,11.60
2022-09-10T22:39:29.757Z,9.65
2022-09-10T22:41:59.264Z,11.90
2022-09-10T22:44:28.058Z,11.35
2022-09-10T22:46:56.737Z,13.43
2022-09-10T22:49:25.274Z,10.20
2022-09-10T22:51:54.036Z,12.75
2022-09-10T22:54:22.724Z,10.40
2022-09-10T22:56:52.590Z,12.65
2022-09-10T22:59:21.484Z,11.63
2022-09-10T23:01:50.143Z,11.73
2022-09-10T23:04:18.736Z,12.95
2022-09-10T23:06:47.533Z,11.45
2022-09-10T23:09:18.463Z,12.65
2022-09-10T23:11:47.891Z,12.68
2022-09-10T23:14:21.998Z,11.57
2022-09-10T23:16:52.029Z,10.60
2022-09-10T23:19:24.652Z,10.25
2022-09-10T23:21:55.284Z,11.25
2022-09-10T23:24:26.431Z,11.10
2022-09-10T23:26:56.075Z,11.75
2022-09-10T23:29:26.241Z,12.05
2022-09-10T23:31:54.818Z,12.05
2022-09-10T23:34:24.139Z,9.07
2022-09-10T23:36:53.984Z,11.77
2022-09-10T23:39:24.937Z,10.88
2022-09-10T23:41:58.366Z,11.00
2022-09-10T23:44:28.668Z,13.27
2022-09-10T23:46:57.557Z,12.85
2022-09-10T23:49:26.172Z,13.50
2022-09-10T23:51:54.792Z,10.07
2022-09-10T23:54:23.725Z,12.93
2022-09-10T23:56:52.534Z,11.50
2022-09-10T23:59:22.006Z,12.15
